sensor_id;sensor_type;location;lat;lon;timestamp;P1;durP1;ratioP1;P2;durP2;ratioP2
13228;SDS011;6680;53.220;10.402;2023-12-20T00:00:19;6.87;;;2.40;;
13228;SDS011;6680;53.220;10.402;2023-12-20T00:02:46;4.93;;;2.87;;
13228;SDS011;6680;53.220;10.402;2023-12-20T00:05:13;7.63;;;2.63;;
13228;SDS011;6680;53.220;10.402;2023-12-20T00:07:40;2.43;;;2.23;;
13228;SDS011;6680;53.220;10.402;2023-12-20T00:10:07;5.50;;;2.60;;
13228;SDS011;6680;53.220;10.402;2023-12-20T00:12:34;4.17;;;2.67;;
13228;SDS011;6680;53.220;10.402;2023-12-20T00:15:02;7.53;;;2.40;;
13228;SDS011;6680;53.220;10.402;2023-12-20T00:17:29;5.80;;;2.60;;
13228;SDS011;6680;53.220;10.402;2023-12-20T00:19:56;6.37;;;2.13;;
13228;SDS011;6680;53.220;10.402;2023-12-20T00:22:23;9.17;;;2.63;;
13228;SDS011;6680;53.220;10.402;2023-12-20T00:24:50;5.47;;;2.60;;
13228;SDS011;6680;53.220;10.402;2023-12-20T00:27:16;2.87;;;1.83;;
13228;SDS011;6680;53.220;10.402;2023-12-20T00:29:43;6.87;;;2.03;;
13228;SDS011;6680;53.220;10.402;2023-12-20T00:32:14;8.63;;;2.90;;
13228;SDS011;6680;53.220;10.402;2023-12-20T00:34:41;6.40;;;2.27;;
13228;SDS011;6680;53.220;10.402;2023-12-20T00:37:09;6.90;;;2.07;;
13228;SDS011;6680;53.220;10.402;2023-12-20T00:39:36;8.93;;;2.77;;
13228;SDS011;6680;53.220;10.402;2023-12-20T00:42:02;12.33;;;2.40;;
13228;SDS011;6680;53.220;10.402;2023-12-20T00:44:30;8.33;;;2.43;;
13228;SDS011;6680;53.220;10.402;2023-12-20T00:46:57;9.83;;;2.57;;
13228;SDS011;6680;53.220;10.402;2023-12-20T00:49:25;5.40;;;2.40;;
13228;SDS011;6680;53.220;10.402;2023-12-20T00:51:52;3.60;;;2.67;;
13228;SDS011;6680;53.220;10.402;2023-12-20T00:54:18;5.97;;;2.47;;
13228;SDS011;6680;53.220;10.402;2023-12-20T00:56:45;4.17;;;2.13;;
13228;SDS011;6680;53.220;10.402;2023-12-20T00:59:12;7.90;;;2.10;;
13228;SDS011;6680;53.220;10.402;2023-12-20T01:01:40;4.93;;;2.57;;
13228;SDS011;6680;53.220;10.402;2023-12-20T01:04:07;8.20;;;2.43;;
13228;SDS011;6680;53.220;10.402;2023-12-20T01:06:35;7.87;;;2.43;;
13228;SDS011;6680;53.220;10.402;2023-12-20T01:09:02;6.23;;;2.43;;
13228;SDS011;6680;53.220;10.402;2023-12-20T01:11:29;6.00;;;2.33;;
13228;SDS011;6680;53.220;10.402;2023-12-20T01:13:56;7.77;;;2.27;;
13228;SDS011;6680;53.220;10.402;2023-12-20T01:16:22;6.53;;;2.27;;
13228;SDS011;6680;53.220;10.402;2023-12-20T01:18:49;9.07;;;2.40;;
13228;SDS011;6680;53.220;10.402;2023-12-20T01:21:16;10.10;;;2.87;;
13228;SDS011;6680;53.220;10.402;2023-12-20T01:23:44;4.87;;;2.27;;
13228;SDS011;6680;53.220;10.402;2023-12-20T01:26:11;5.27;;;2.33;;
13228;SDS011;6680;53.220;10.402;2023-12-20T01:28:38;3.97;;;2.23;;
13228;SDS011;6680;53.220;10.402;2023-12-20T01:31:05;8.67;;;2.10;;
13228;SDS011;6680;53.220;10.402;2023-12-20T01:33:31;4.90;;;2.20;;
13228;SDS011;6680;53.220;10.402;2023-12-20T01:35:58;11.47;;;2.67;;
13228;SDS011;6680;53.220;10.402;2023-12-20T01:38:25;7.20;;;2.23;;
13228;SDS011;6680;53.220;10.402;2023-12-20T01:40:53;8.73;;;2.43;;
13228;SDS011;6680;53.220;10.402;2023-12-20T01:43:20;5.67;;;2.20;;
13228;SDS011;6680;53.220;10.402;2023-12-20T01:45:47;4.60;;;2.37;;
13228;SDS011;6680;53.220;10.402;2023-12-20T01:48:14;6.43;;;2.60;;
13228;SDS011;6680;53.220;10.402;2023-12-20T01:50:42;4.03;;;2.00;;
13228;SDS011;6680;53.220;10.402;2023-12-20T01:53:10;3.77;;;2.43;;
13228;SDS011;6680;53.220;10.402;2023-12-20T01:55:38;9.27;;;2.80;;
13228;SDS011;6680;53.220;10.402;2023-12-20T01:58:07;5.67;;;2.43;;
13228;SDS011;6680;53.220;10.402;2023-12-20T02:00:36;8.00;;;2.50;;
13228;SDS011;6680;53.220;10.402;2023-12-20T02:03:03;5.20;;;2.07;;
13228;SDS011;6680;53.220;10.402;2023-12-20T02:05:30;10.63;;;2.73;;
13228;SDS011;6680;53.220;10.402;2023-12-20T02:07:57;4.90;;;2.43;;
13228;SDS011;6680;53.220;10.402;2023-12-20T02:10:24;6.57;;;2.30;;
13228;SDS011;6680;53.220;10.402;2023-12-20T02:12:52;3.70;;;2.00;;
13228;SDS011;6680;53.220;10.402;2023-12-20T02:15:20;5.57;;;2.37;;
13228;SDS011;6680;53.220;10.402;2023-12-20T02:17:47;8.57;;;2.67;;
13228;SDS011;6680;53.220;10.402;2023-12-20T02:20:15;8.23;;;2.70;;
13228;SDS011;6680;53.220;10.402;2023-12-20T02:22:43;9.00;;;2.53;;
13228;SDS011;6680;53.220;10.402;2023-12-20T02:25:10;5.27;;;2.67;;
13228;SDS011;6680;53.220;10.402;2023-12-20T02:27:37;7.60;;;3.07;;
13228;SDS011;6680;53.220;10.402;2023-12-20T02:30:05;6.63;;;3.27;;
13228;SDS011;6680;53.220;10.402;2023-12-20T02:32:33;7.03;;;3.50;;
13228;SDS011;6680;53.220;10.402;2023-12-20T02:35:00;12.23;;;3.80;;
13228;SDS011;6680;53.220;10.402;2023-12-20T02:37:26;8.43;;;3.70;;
13228;SDS011;6680;53.220;10.402;2023-12-20T02:39:54;11.70;;;4.17;;
13228;SDS011;6680;53.220;10.402;2023-12-20T02:42:21;11.63;;;4.27;;
13228;SDS011;6680;53.220;10.402;2023-12-20T02:44:48;10.50;;;3.57;;
13228;SDS011;6680;53.220;10.402;2023-12-20T02:47:15;9.00;;;4.03;;
13228;SDS011;6680;53.220;10.402;2023-12-20T02:49:42;11.97;;;4.13;;
13228;SDS011;6680;53.220;10.402;2023-12-20T02:52:09;9.57;;;4.30;;
13228;SDS011;6680;53.220;10.402;2023-12-20T02:54:35;7.30;;;3.67;;
13228;SDS011;6680;53.220;10.402;2023-12-20T02:57:04;10.93;;;4.43;;
13228;SDS011;6680;53.220;10.402;2023-12-20T02:59:30;10.20;;;4.03;;
13228;SDS011;6680;53.220;10.402;2023-12-20T03:01:57;7.60;;;4.07;;
13228;SDS011;6680;53.220;10.402;2023-12-20T03:04:24;6.23;;;3.60;;
13228;SDS011;6680;53.220;10.402;2023-12-20T03:06:51;7.13;;;3.87;;
13228;SDS011;6680;53.220;10.402;2023-12-20T03:09:17;9.17;;;4.03;;
13228;SDS011;6680;53.220;10.402;2023-12-20T03:11:44;6.23;;;3.77;;
13228;SDS011;6680;53.220;10.402;2023-12-20T03:14:12;10.20;;;3.77;;
13228;SDS011;6680;53.220;10.402;2023-12-20T03:16:39;5.63;;;3.80;;
13228;SDS011;6680;53.220;10.402;2023-12-20T03:19:06;12.33;;;3.70;;
13228;SDS011;6680;53.220;10.402;2023-12-20T03:21:33;6.40;;;3.17;;
13228;SDS011;6680;53.220;10.402;2023-12-20T03:23:59;10.73;;;3.90;;
13228;SDS011;6680;53.220;10.402;2023-12-20T03:26:26;8.37;;;3.47;;
13228;SDS011;6680;53.220;10.402;2023-12-20T03:28:53;5.53;;;3.30;;
13228;SDS011;6680;53.220;10.402;2023-12-20T03:31:21;7.60;;;4.13;;
13228;SDS011;6680;53.220;10.402;2023-12-20T03:33:48;5.87;;;3.40;;
13228;SDS011;6680;53.220;10.402;2023-12-20T03:36:16;10.37;;;3.30;;
13228;SDS011;6680;53.220;10.402;2023-12-20T03:38:42;6.80;;;3.10;;
13228;SDS011;6680;53.220;10.402;2023-12-20T03:41:09;13.40;;;4.17;;
13228;SDS011;6680;53.220;10.402;2023-12-20T03:43:36;5.37;;;3.23;;
13228;SDS011;6680;53.220;10.402;2023-12-20T03:46:03;10.73;;;3.57;;
13228;SDS011;6680;53.220;10.402;2023-12-20T03:48:31;8.73;;;3.60;;
13228;SDS011;6680;53.220;10.402;2023-12-20T03:50:58;7.00;;;3.10;;
13228;SDS011;6680;53.220;10.402;2023-12-20T03:53:25;7.93;;;3.37;;
13228;SDS011;6680;53.220;10.402;2023-12-20T03:55:52;5.37;;;3.40;;
13228;SDS011;6680;53.220;10.402;2023-12-20T03:58:18;6.67;;;2.80;;
13228;SDS011;6680;53.220;10.402;2023-12-20T04:00:45;5.03;;;2.80;;
13228;SDS011;6680;53.220;10.402;2023-12-20T04:03:12;6.67;;;3.07;;
13228;SDS011;6680;53.220;10.402;2023-12-20T04:05:40;9.47;;;3.17;;
13228;SDS011;6680;53.220;10.402;2023-12-20T04:08:07;6.30;;;3.07;;
13228;SDS011;6680;53.220;10.402;2023-12-20T04:10:35;9.87;;;3.00;;
13228;SDS011;6680;53.220;10.402;2023-12-20T04:13:02;6.07;;;2.67;;
13228;SDS011;6680;53.220;10.402;2023-12-20T04:15:29;4.70;;;2.27;;
13228;SDS011;6680;53.220;10.402;2023-12-20T04:17:56;7.63;;;2.50;;
13228;SDS011;6680;53.220;10.402;2023-12-20T04:20:23;4.77;;;3.13;;
13228;SDS011;6680;53.220;10.402;2023-12-20T04:22:51;3.40;;;2.27;;
13228;SDS011;6680;53.220;10.402;2023-12-20T04:25:18;5.60;;;2.53;;
13228;SDS011;6680;53.220;10.402;2023-12-20T04:27:45;3.63;;;2.93;;
13228;SDS011;6680;53.220;10.402;2023-12-20T04:30:12;3.63;;;3.33;;
13228;SDS011;6680;53.220;10.402;2023-12-20T04:32:39;4.77;;;2.90;;
13228;SDS011;6680;53.220;10.402;2023-12-20T04:35:05;8.10;;;2.53;;
13228;SDS011;6680;53.220;10.402;2023-12-20T04:37:33;9.73;;;3.23;;
13228;SDS011;6680;53.220;10.402;2023-12-20T04:40:02;7.80;;;2.63;;
13228;SDS011;6680;53.220;10.402;2023-12-20T04:42:30;6.43;;;2.90;;
13228;SDS011;6680;53.220;10.402;2023-12-20T04:44:57;4.10;;;2.53;;
13228;SDS011;6680;53.220;10.402;2023-12-20T04:47:24;6.00;;;3.03;;
13228;SDS011;6680;53.220;10.402;2023-12-20T04:49:51;7.60;;;2.77;;
13228;SDS011;6680;53.220;10.402;2023-12-20T04:52:17;3.53;;;3.20;;
13228;SDS011;6680;53.220;10.402;2023-12-20T04:54:44;8.70;;;2.87;;
13228;SDS011;6680;53.220;10.402;2023-12-20T04:57:12;8.20;;;2.87;;
13228;SDS011;6680;53.220;10.402;2023-12-20T04:59:39;11.33;;;3.60;;
13228;SDS011;6680;53.220;10.402;2023-12-20T05:02:06;7.03;;;3.13;;
13228;SDS011;6680;53.220;10.402;2023-12-20T05:04:33;8.03;;;3.33;;
13228;SDS011;6680;53.220;10.402;2023-12-20T05:07:00;5.93;;;3.13;;
13228;SDS011;6680;53.220;10.402;2023-12-20T05:09:27;9.97;;;3.17;;
13228;SDS011;6680;53.220;10.402;2023-12-20T05:11:54;15.13;;;3.70;;
13228;SDS011;6680;53.220;10.402;2023-12-20T05:14:22;5.03;;;3.03;;
13228;SDS011;6680;53.220;10.402;2023-12-20T05:16:49;6.60;;;3.43;;
13228;SDS011;6680;53.220;10.402;2023-12-20T05:19:16;9.33;;;3.43;;
13228;SDS011;6680;53.220;10.402;2023-12-20T05:21:43;6.53;;;3.30;;
13228;SDS011;6680;53.220;10.402;2023-12-20T05:24:10;8.87;;;3.17;;
13228;SDS011;6680;53.220;10.402;2023-12-20T05:26:37;7.90;;;3.10;;
13228;SDS011;6680;53.220;10.402;2023-12-20T05:29:03;7.73;;;3.10;;
13228;SDS011;6680;53.220;10.402;2023-12-20T05:31:32;6.97;;;2.90;;
13228;SDS011;6680;53.220;10.402;2023-12-20T05:33:59;6.27;;;3.03;;
13228;SDS011;6680;53.220;10.402;2023-12-20T05:36:25;9.73;;;3.07;;
13228;SDS011;6680;53.220;10.402;2023-12-20T05:38:52;10.87;;;3.70;;
13228;SDS011;6680;53.220;10.402;2023-12-20T05:41:19;6.63;;;2.97;;
13228;SDS011;6680;53.220;10.402;2023-12-20T05:43:47;9.37;;;3.37;;
13228;SDS011;6680;53.220;10.402;2023-12-20T05:46:13;7.03;;;3.50;;
13228;SDS011;6680;53.220;10.402;2023-12-20T05:48:42;10.30;;;3.00;;
13228;SDS011;6680;53.220;10.402;2023-12-20T05:51:11;7.53;;;3.00;;
13228;SDS011;6680;53.220;10.402;2023-12-20T05:53:38;11.33;;;2.87;;
13228;SDS011;6680;53.220;10.402;2023-12-20T05:56:05;6.10;;;3.10;;
13228;SDS011;6680;53.220;10.402;2023-12-20T05:58:32;7.37;;;3.23;;
13228;SDS011;6680;53.220;10.402;2023-12-20T06:00:59;9.33;;;2.63;;
13228;SDS011;6680;53.220;10.402;2023-12-20T06:03:26;8.87;;;2.53;;
13228;SDS011;6680;53.220;10.402;2023-12-20T06:05:54;11.53;;;3.07;;
13228;SDS011;6680;53.220;10.402;2023-12-20T06:08:20;9.77;;;3.47;;
13228;SDS011;6680;53.220;10.402;2023-12-20T06:10:47;6.90;;;2.50;;
13228;SDS011;6680;53.220;10.402;2023-12-20T06:13:14;5.27;;;3.27;;
13228;SDS011;6680;53.220;10.402;2023-12-20T06:15:41;8.53;;;3.60;;
13228;SDS011;6680;53.220;10.402;2023-12-20T06:18:08;8.93;;;3.37;;
13228;SDS011;6680;53.220;10.402;2023-12-20T06:20:35;7.00;;;4.03;;
13228;SDS011;6680;53.220;10.402;2023-12-20T06:23:03;7.70;;;4.10;;
13228;SDS011;6680;53.220;10.402;2023-12-20T06:25:30;15.40;;;4.53;;
13228;SDS011;6680;53.220;10.402;2023-12-20T06:27:57;5.47;;;3.63;;
13228;SDS011;6680;53.220;10.402;2023-12-20T06:30:24;9.13;;;3.10;;
13228;SDS011;6680;53.220;10.402;2023-12-20T06:32:52;8.17;;;3.40;;
13228;SDS011;6680;53.220;10.402;2023-12-20T06:35:20;9.03;;;3.77;;
13228;SDS011;6680;53.220;10.402;2023-12-20T06:37:47;5.50;;;3.27;;
13228;SDS011;6680;53.220;10.402;2023-12-20T06:40:15;14.27;;;3.87;;
13228;SDS011;6680;53.220;10.402;2023-12-20T06:42:42;10.10;;;4.00;;
13228;SDS011;6680;53.220;10.402;2023-12-20T06:45:09;5.83;;;3.37;;
13228;SDS011;6680;53.220;10.402;2023-12-20T06:47:36;5.80;;;3.20;;
13228;SDS011;6680;53.220;10.402;2023-12-20T06:50:04;7.43;;;4.03;;
13228;SDS011;6680;53.220;10.402;2023-12-20T06:52:33;5.67;;;3.30;;
13228;SDS011;6680;53.220;10.402;2023-12-20T06:55:00;11.33;;;3.47;;
13228;SDS011;6680;53.220;10.402;2023-12-20T06:57:28;8.10;;;2.87;;
13228;SDS011;6680;53.220;10.402;2023-12-20T06:59:55;7.33;;;3.20;;
13228;SDS011;6680;53.220;10.402;2023-12-20T07:02:22;9.93;;;3.77;;
13228;SDS011;6680;53.220;10.402;2023-12-20T07:04:49;9.80;;;3.40;;
13228;SDS011;6680;53.220;10.402;2023-12-20T07:07:16;8.50;;;3.70;;
13228;SDS011;6680;53.220;10.402;2023-12-20T07:09:43;8.20;;;3.43;;
13228;SDS011;6680;53.220;10.402;2023-12-20T07:12:09;8.63;;;3.53;;
13228;SDS011;6680;53.220;10.402;2023-12-20T07:14:38;7.07;;;3.20;;
13228;SDS011;6680;53.220;10.402;2023-12-20T07:17:04;10.00;;;3.50;;
13228;SDS011;6680;53.220;10.402;2023-12-20T07:19:36;10.30;;;3.50;;
13228;SDS011;6680;53.220;10.402;2023-12-20T07:22:03;4.57;;;2.97;;
13228;SDS011;6680;53.220;10.402;2023-12-20T07:24:30;14.97;;;3.50;;
13228;SDS011;6680;53.220;10.402;2023-12-20T07:26:56;9.10;;;3.40;;
13228;SDS011;6680;53.220;10.402;2023-12-20T07:29:23;13.53;;;3.20;;
13228;SDS011;6680;53.220;10.402;2023-12-20T07:31:52;6.03;;;3.13;;
13228;SDS011;6680;53.220;10.402;2023-12-20T07:34:19;13.00;;;3.30;;
13228;SDS011;6680;53.220;10.402;2023-12-20T07:36:46;6.37;;;3.03;;
13228;SDS011;6680;53.220;10.402;2023-12-20T07:39:13;10.03;;;3.53;;
13228;SDS011;6680;53.220;10.402;2023-12-20T07:41:40;9.60;;;3.37;;
13228;SDS011;6680;53.220;10.402;2023-12-20T07:44:07;6.60;;;3.17;;
13228;SDS011;6680;53.220;10.402;2023-12-20T07:46:34;10.43;;;3.40;;
13228;SDS011;6680;53.220;10.402;2023-12-20T07:49:02;7.13;;;2.80;;
13228;SDS011;6680;53.220;10.402;2023-12-20T07:51:30;10.10;;;3.43;;
13228;SDS011;6680;53.220;10.402;2023-12-20T07:53:56;6.63;;;2.90;;
13228;SDS011;6680;53.220;10.402;2023-12-20T07:56:23;9.17;;;2.60;;
13228;SDS011;6680;53.220;10.402;2023-12-20T07:58:50;9.40;;;3.20;;
13228;SDS011;6680;53.220;10.402;2023-12-20T08:01:17;6.73;;;3.60;;
13228;SDS011;6680;53.220;10.402;2023-12-20T08:03:44;12.13;;;3.10;;
13228;SDS011;6680;53.220;10.402;2023-12-20T08:06:12;7.17;;;2.90;;
13228;SDS011;6680;53.220;10.402;2023-12-20T08:08:39;7.97;;;3.53;;
13228;SDS011;6680;53.220;10.402;2023-12-20T08:11:06;10.73;;;3.50;;
13228;SDS011;6680;53.220;10.402;2023-12-20T08:13:33;8.80;;;3.77;;
13228;SDS011;6680;53.220;10.402;2023-12-20T08:16:00;15.33;;;3.77;;
13228;SDS011;6680;53.220;10.402;2023-12-20T08:18:28;10.83;;;3.50;;
13228;SDS011;6680;53.220;10.402;2023-12-20T08:20:54;10.23;;;3.73;;
13228;SDS011;6680;53.220;10.402;2023-12-20T08:23:23;7.73;;;3.90;;
13228;SDS011;6680;53.220;10.402;2023-12-20T08:25:49;5.93;;;2.93;;
13228;SDS011;6680;53.220;10.402;2023-12-20T08:28:16;9.87;;;3.70;;
13228;SDS011;6680;53.220;10.402;2023-12-20T08:30:43;12.03;;;3.27;;
13228;SDS011;6680;53.220;10.402;2023-12-20T08:33:10;10.07;;;3.73;;
13228;SDS011;6680;53.220;10.402;2023-12-20T08:35:38;8.40;;;3.27;;
13228;SDS011;6680;53.220;10.402;2023-12-20T08:38:05;6.80;;;3.93;;
13228;SDS011;6680;53.220;10.402;2023-12-20T08:40:33;9.77;;;3.60;;
13228;SDS011;6680;53.220;10.402;2023-12-20T08:43:00;8.00;;;3.40;;
13228;SDS011;6680;53.220;10.402;2023-12-20T08:45:27;8.90;;;3.60;;
13228;SDS011;6680;53.220;10.402;2023-12-20T08:47:54;9.00;;;3.70;;
13228;SDS011;6680;53.220;10.402;2023-12-20T08:50:21;9.03;;;3.60;;
13228;SDS011;6680;53.220;10.402;2023-12-20T08:52:47;8.90;;;3.43;;
13228;SDS011;6680;53.220;10.402;2023-12-20T08:55:14;7.23;;;3.67;;
13228;SDS011;6680;53.220;10.402;2023-12-20T08:57:44;10.17;;;3.20;;
13228;SDS011;6680;53.220;10.402;2023-12-20T09:00:11;7.10;;;3.10;;
13228;SDS011;6680;53.220;10.402;2023-12-20T09:02:39;10.87;;;3.80;;
13228;SDS011;6680;53.220;10.402;2023-12-20T09:05:07;6.47;;;3.50;;
13228;SDS011;6680;53.220;10.402;2023-12-20T09:07:34;11.80;;;3.10;;
13228;SDS011;6680;53.220;10.402;2023-12-20T09:10:01;10.13;;;3.20;;
13228;SDS011;6680;53.220;10.402;2023-12-20T09:12:28;4.73;;;2.27;;
13228;SDS011;6680;53.220;10.402;2023-12-20T09:14:57;11.50;;;3.70;;
13228;SDS011;6680;53.220;10.402;2023-12-20T09:17:23;8.90;;;3.13;;
13228;SDS011;6680;53.220;10.402;2023-12-20T09:19:50;15.43;;;3.53;;
13228;SDS011;6680;53.220;10.402;2023-12-20T09:22:19;15.57;;;4.00;;
13228;SDS011;6680;53.220;10.402;2023-12-20T09:24:45;9.63;;;3.70;;
13228;SDS011;6680;53.220;10.402;2023-12-20T09:27:12;9.43;;;3.30;;
13228;SDS011;6680;53.220;10.402;2023-12-20T09:29:39;8.23;;;3.43;;
13228;SDS011;6680;53.220;10.402;2023-12-20T09:32:07;6.23;;;3.00;;
13228;SDS011;6680;53.220;10.402;2023-12-20T09:34:34;11.77;;;3.77;;
13228;SDS011;6680;53.220;10.402;2023-12-20T09:37:02;14.73;;;3.67;;
13228;SDS011;6680;53.220;10.402;2023-12-20T09:39:30;15.53;;;4.13;;
13228;SDS011;6680;53.220;10.402;2023-12-20T09:42:00;6.40;;;3.30;;
13228;SDS011;6680;53.220;10.402;2023-12-20T09:44:27;9.07;;;3.77;;
13228;SDS011;6680;53.220;10.402;2023-12-20T09:46:55;5.20;;;3.30;;
13228;SDS011;6680;53.220;10.402;2023-12-20T09:49:23;8.13;;;3.70;;
13228;SDS011;6680;53.220;10.402;2023-12-20T09:51:53;12.97;;;4.47;;
13228;SDS011;6680;53.220;10.402;2023-12-20T09:54:20;5.90;;;3.40;;
13228;SDS011;6680;53.220;10.402;2023-12-20T09:56:48;14.00;;;3.57;;
13228;SDS011;6680;53.220;10.402;2023-12-20T09:59:15;11.70;;;4.53;;
13228;SDS011;6680;53.220;10.402;2023-12-20T10:01:42;8.00;;;2.93;;
13228;SDS011;6680;53.220;10.402;2023-12-20T10:04:09;7.07;;;3.83;;
13228;SDS011;6680;53.220;10.402;2023-12-20T10:06:39;6.33;;;2.80;;
13228;SDS011;6680;53.220;10.402;2023-12-20T10:09:06;10.80;;;2.30;;
13228;SDS011;6680;53.220;10.402;2023-12-20T10:11:34;4.40;;;2.40;;
13228;SDS011;6680;53.220;10.402;2023-12-20T10:14:02;5.77;;;2.47;;
13228;SDS011;6680;53.220;10.402;2023-12-20T10:16:29;3.00;;;1.90;;
13228;SDS011;6680;53.220;10.402;2023-12-20T10:18:57;5.77;;;2.30;;
13228;SDS011;6680;53.220;10.402;2023-12-20T10:21:25;2.23;;;2.03;;
13228;SDS011;6680;53.220;10.402;2023-12-20T10:23:53;3.37;;;1.70;;
13228;SDS011;6680;53.220;10.402;2023-12-20T10:26:21;4.10;;;2.00;;
13228;SDS011;6680;53.220;10.402;2023-12-20T10:28:50;4.50;;;2.27;;
13228;SDS011;6680;53.220;10.402;2023-12-20T10:31:30;5.27;;;1.87;;
13228;SDS011;6680;53.220;10.402;2023-12-20T10:33:58;4.57;;;2.03;;
13228;SDS011;6680;53.220;10.402;2023-12-20T10:36:26;3.83;;;1.80;;
13228;SDS011;6680;53.220;10.402;2023-12-20T10:38:56;2.27;;;1.80;;
13228;SDS011;6680;53.220;10.402;2023-12-20T10:41:24;1.70;;;1.60;;
13228;SDS011;6680;53.220;10.402;2023-12-20T10:43:53;3.17;;;1.63;;
13228;SDS011;6680;53.220;10.402;2023-12-20T10:46:26;2.47;;;1.43;;
13228;SDS011;6680;53.220;10.402;2023-12-20T10:48:53;2.07;;;1.43;;
13228;SDS011;6680;53.220;10.402;2023-12-20T10:51:21;2.17;;;1.43;;
13228;SDS011;6680;53.220;10.402;2023-12-20T10:53:49;1.50;;;1.40;;
13228;SDS011;6680;53.220;10.402;2023-12-20T10:56:17;2.33;;;1.20;;
13228;SDS011;6680;53.220;10.402;2023-12-20T10:58:46;1.90;;;1.50;;
13228;SDS011;6680;53.220;10.402;2023-12-20T11:01:15;1.37;;;1.27;;
13228;SDS011;6680;53.220;10.402;2023-12-20T11:03:44;1.20;;;1.20;;
13228;SDS011;6680;53.220;10.402;2023-12-20T11:06:19;3.27;;;1.50;;
13228;SDS011;6680;53.220;10.402;2023-12-20T11:08:55;1.77;;;1.43;;
13228;SDS011;6680;53.220;10.402;2023-12-20T11:11:37;1.33;;;1.23;;
13228;SDS011;6680;53.220;10.402;2023-12-20T11:14:13;1.60;;;0.90;;
13228;SDS011;6680;53.220;10.402;2023-12-20T11:16:43;5.70;;;1.40;;
13228;SDS011;6680;53.220;10.402;2023-12-20T11:19:10;1.20;;;1.10;;
13228;SDS011;6680;53.220;10.402;2023-12-20T11:21:39;1.80;;;1.20;;
13228;SDS011;6680;53.220;10.402;2023-12-20T11:24:06;1.77;;;1.50;;
13228;SDS011;6680;53.220;10.402;2023-12-20T11:26:33;1.77;;;1.47;;
13228;SDS011;6680;53.220;10.402;2023-12-20T11:31:57;6.20;;;1.93;;
13228;SDS011;6680;53.220;10.402;2023-12-20T11:34:26;3.07;;;1.73;;
13228;SDS011;6680;53.220;10.402;2023-12-20T11:36:56;3.83;;;1.40;;
13228;SDS011;6680;53.220;10.402;2023-12-20T11:39:24;1.90;;;1.80;;
13228;SDS011;6680;53.220;10.402;2023-12-20T11:41:53;2.00;;;1.80;;
13228;SDS011;6680;53.220;10.402;2023-12-20T11:44:21;2.50;;;1.40;;
13228;SDS011;6680;53.220;10.402;2023-12-20T11:46:48;2.90;;;1.70;;
13228;SDS011;6680;53.220;10.402;2023-12-20T11:49:15;3.73;;;2.47;;
13228;SDS011;6680;53.220;10.402;2023-12-20T11:51:42;5.80;;;2.10;;
13228;SDS011;6680;53.220;10.402;2023-12-20T11:54:10;4.17;;;2.03;;
13228;SDS011;6680;53.220;10.402;2023-12-20T11:56:36;2.93;;;1.50;;
13228;SDS011;6680;53.220;10.402;2023-12-20T11:59:05;2.13;;;1.40;;
13228;SDS011;6680;53.220;10.402;2023-12-20T12:01:33;6.67;;;1.70;;
13228;SDS011;6680;53.220;10.402;2023-12-20T12:04:03;2.30;;;1.40;;
13228;SDS011;6680;53.220;10.402;2023-12-20T12:06:30;4.87;;;2.07;;
13228;SDS011;6680;53.220;10.402;2023-12-20T12:08:57;3.33;;;2.07;;
13228;SDS011;6680;53.220;10.402;2023-12-20T12:11:24;5.00;;;1.90;;
13228;SDS011;6680;53.220;10.402;2023-12-20T12:13:51;4.80;;;2.10;;
13228;SDS011;6680;53.220;10.402;2023-12-20T12:16:19;8.37;;;2.00;;
13228;SDS011;6680;53.220;10.402;2023-12-20T12:18:46;2.77;;;1.83;;
13228;SDS011;6680;53.220;10.402;2023-12-20T12:21:21;1.47;;;1.13;;
13228;SDS011;6680;53.220;10.402;2023-12-20T12:23:48;6.17;;;2.20;;
13228;SDS011;6680;53.220;10.402;2023-12-20T12:26:15;2.33;;;1.50;;
13228;SDS011;6680;53.220;10.402;2023-12-20T12:28:42;7.17;;;2.10;;
13228;SDS011;6680;53.220;10.402;2023-12-20T12:31:12;5.43;;;2.10;;
13228;SDS011;6680;53.220;10.402;2023-12-20T12:33:42;3.93;;;1.40;;
13228;SDS011;6680;53.220;10.402;2023-12-20T12:36:09;6.80;;;1.57;;
13228;SDS011;6680;53.220;10.402;2023-12-20T12:38:37;4.23;;;1.80;;
13228;SDS011;6680;53.220;10.402;2023-12-20T12:41:04;1.90;;;1.70;;
13228;SDS011;6680;53.220;10.402;2023-12-20T12:43:32;7.40;;;2.10;;
13228;SDS011;6680;53.220;10.402;2023-12-20T12:45:59;4.87;;;2.00;;
13228;SDS011;6680;53.220;10.402;2023-12-20T12:48:26;6.30;;;2.20;;
13228;SDS011;6680;53.220;10.402;2023-12-20T12:50:55;3.33;;;1.93;;
13228;SDS011;6680;53.220;10.402;2023-12-20T12:53:24;7.07;;;4.27;;
13228;SDS011;6680;53.220;10.402;2023-12-20T12:55:52;9.90;;;4.90;;
13228;SDS011;6680;53.220;10.402;2023-12-20T12:58:19;7.97;;;2.33;;
13228;SDS011;6680;53.220;10.402;2023-12-20T13:00:46;6.77;;;1.90;;
13228;SDS011;6680;53.220;10.402;2023-12-20T13:03:13;7.20;;;2.10;;
13228;SDS011;6680;53.220;10.402;2023-12-20T13:05:40;5.20;;;2.13;;
13228;SDS011;6680;53.220;10.402;2023-12-20T13:08:08;3.33;;;1.70;;
13228;SDS011;6680;53.220;10.402;2023-12-20T13:10:37;3.57;;;1.63;;
13228;SDS011;6680;53.220;10.402;2023-12-20T13:13:04;3.27;;;1.67;;
13228;SDS011;6680;53.220;10.402;2023-12-20T13:15:31;4.97;;;1.80;;
13228;SDS011;6680;53.220;10.402;2023-12-20T13:17:57;1.90;;;1.80;;
13228;SDS011;6680;53.220;10.402;2023-12-20T13:20:25;2.67;;;1.77;;
13228;SDS011;6680;53.220;10.402;2023-12-20T13:22:51;3.80;;;1.40;;
13228;SDS011;6680;53.220;10.402;2023-12-20T13:25:20;1.50;;;1.40;;
13228;SDS011;6680;53.220;10.402;2023-12-20T13:27:46;1.97;;;1.50;;
13228;SDS011;6680;53.220;10.402;2023-12-20T13:30:13;2.83;;;1.77;;
13228;SDS011;6680;53.220;10.402;2023-12-20T13:32:40;4.17;;;1.80;;
13228;SDS011;6680;53.220;10.402;2023-12-20T13:35:07;2.60;;;1.60;;
13228;SDS011;6680;53.220;10.402;2023-12-20T13:37:34;4.40;;;1.70;;
13228;SDS011;6680;53.220;10.402;2023-12-20T13:40:01;5.33;;;1.53;;
13228;SDS011;6680;53.220;10.402;2023-12-20T13:42:31;11.47;;;2.33;;
13228;SDS011;6680;53.220;10.402;2023-12-20T13:44:57;4.93;;;1.63;;
13228;SDS011;6680;53.220;10.402;2023-12-20T13:47:24;4.70;;;2.13;;
13228;SDS011;6680;53.220;10.402;2023-12-20T13:49:51;7.07;;;2.37;;
13228;SDS011;6680;53.220;10.402;2023-12-20T13:52:18;10.03;;;3.23;;
13228;SDS011;6680;53.220;10.402;2023-12-20T13:54:45;5.93;;;2.30;;
13228;SDS011;6680;53.220;10.402;2023-12-20T13:57:12;3.80;;;2.13;;
13228;SDS011;6680;53.220;10.402;2023-12-20T13:59:40;7.30;;;2.70;;
13228;SDS011;6680;53.220;10.402;2023-12-20T14:02:07;5.90;;;1.93;;
13228;SDS011;6680;53.220;10.402;2023-12-20T14:04:34;7.23;;;2.30;;
13228;SDS011;6680;53.220;10.402;2023-12-20T14:07:01;3.97;;;2.20;;
13228;SDS011;6680;53.220;10.402;2023-12-20T14:09:28;8.50;;;2.67;;
13228;SDS011;6680;53.220;10.402;2023-12-20T14:11:54;6.63;;;2.53;;
13228;SDS011;6680;53.220;10.402;2023-12-20T14:14:22;12.30;;;2.80;;
13228;SDS011;6680;53.220;10.402;2023-12-20T14:16:50;3.93;;;2.70;;
13228;SDS011;6680;53.220;10.402;2023-12-20T14:19:17;8.00;;;2.60;;
13228;SDS011;6680;53.220;10.402;2023-12-20T14:21:44;4.20;;;2.60;;
13228;SDS011;6680;53.220;10.402;2023-12-20T14:24:12;7.27;;;2.53;;
13228;SDS011;6680;53.220;10.402;2023-12-20T14:26:39;5.60;;;2.27;;
13228;SDS011;6680;53.220;10.402;2023-12-20T14:29:06;10.43;;;2.57;;
13228;SDS011;6680;53.220;10.402;2023-12-20T14:31:34;4.43;;;2.70;;
13228;SDS011;6680;53.220;10.402;2023-12-20T14:34:03;7.73;;;2.80;;
13228;SDS011;6680;53.220;10.402;2023-12-20T14:36:30;8.60;;;3.60;;
13228;SDS011;6680;53.220;10.402;2023-12-20T14:38:57;9.10;;;3.03;;
13228;SDS011;6680;53.220;10.402;2023-12-20T14:41:24;9.13;;;3.27;;
13228;SDS011;6680;53.220;10.402;2023-12-20T14:43:51;8.60;;;2.33;;
13228;SDS011;6680;53.220;10.402;2023-12-20T14:46:18;5.90;;;2.60;;
13228;SDS011;6680;53.220;10.402;2023-12-20T14:48:45;9.57;;;3.43;;